Ranger, Georgia
Current Conditions -  °F | °C
As of 3:55 AM on Monday 20 Oct 2014 (Local Time) from KDNN Reporting Station
Haze Haze  
Wind Chill: 43°   Ceiling: 100
Heat Index: 43°   Visibility: 0.75mi
Dew Point: 43°   Wind: 0mph
Humidity: 100%   Direction: NA
Pressure: 30.1"   Gusts: NA
Location:  34.5°N, 84.71°W
Report Text: KDNN 200755Z AUTO 00000KT 3/4SM BR OVC001 06/06 A3010 RMK AO2
Loading
Personal Weather Stations






























Interactive Weather Map
Tropical Storm Tracking
New forecast layout! Learn more

10-Day Weather Forecast

Advertisements
Track Severe Weather on mobile